createdAt,value
2018-09-08T00:00:18.095Z,15.71
2018-09-08T00:01:18.023Z,15.75
2018-09-08T00:02:17.951Z,15.67
2018-09-08T00:03:17.879Z,15.67
2018-09-08T00:04:17.804Z,15.73
2018-09-08T00:05:17.733Z,15.68
2018-09-08T00:06:17.662Z,15.67
2018-09-08T00:07:17.587Z,15.67
2018-09-08T00:08:17.512Z,15.67
2018-09-08T00:09:17.440Z,15.70
2018-09-08T00:10:17.367Z,15.64
2018-09-08T00:11:17.294Z,15.71
2018-09-08T00:12:17.222Z,15.66
2018-09-08T00:13:17.147Z,15.75
2018-09-08T00:14:17.075Z,15.75
2018-09-08T00:15:17.003Z,15.71
2018-09-08T00:16:16.928Z,15.75
2018-09-08T00:17:16.858Z,15.68
2018-09-08T00:18:16.782Z,15.73
2018-09-08T00:19:16.711Z,15.71
2018-09-08T00:20:16.639Z,15.78
2018-09-08T00:21:16.565Z,15.75
2018-09-08T00:22:16.490Z,15.66
2018-09-08T00:23:16.421Z,15.75
2018-09-08T00:24:16.344Z,15.76
2018-09-08T00:25:16.272Z,15.71
2018-09-08T00:26:16.200Z,15.76
2018-09-08T00:27:16.127Z,15.71
2018-09-08T00:28:16.052Z,15.68
2018-09-08T00:29:15.980Z,15.67
2018-09-08T00:30:15.907Z,15.68
2018-09-08T00:31:15.834Z,15.64
2018-09-08T00:32:15.760Z,15.66
2018-09-08T00:33:15.689Z,15.61
2018-09-08T00:34:15.615Z,15.71
2018-09-08T00:35:15.543Z,15.67
2018-09-08T00:36:15.470Z,15.61
2018-09-08T00:37:15.396Z,15.61
2018-09-08T00:38:15.324Z,15.67
2018-09-08T00:39:15.251Z,15.66
2018-09-08T00:40:15.177Z,15.70
2018-09-08T00:41:15.107Z,15.64
2018-09-08T00:42:15.034Z,15.67
2018-09-08T00:43:14.960Z,15.63
2018-09-08T00:44:14.885Z,15.51
2018-09-08T00:45:14.813Z,15.46
2018-09-08T00:46:14.741Z,15.39
2018-09-08T00:47:14.667Z,15.26
2018-09-08T00:48:14.594Z,15.24
2018-09-08T00:49:14.521Z,15.20
2018-09-08T00:50:14.448Z,15.23
2018-09-08T00:51:14.376Z,15.26
2018-09-08T00:52:14.301Z,15.23
2018-09-08T00:53:14.231Z,15.20
2018-09-08T00:54:14.157Z,15.20
2018-09-08T00:55:14.083Z,15.03
2018-09-08T00:56:14.013Z,15.02
2018-09-08T00:57:13.934Z,14.95
2018-09-08T00:58:13.863Z,15.02
2018-09-08T00:59:13.790Z,14.85
2018-09-08T01:00:13.716Z,14.87
2018-09-08T01:01:13.646Z,14.84
2018-09-08T01:02:13.570Z,14.85
2018-09-08T01:03:13.499Z,14.90
2018-09-08T01:04:13.422Z,14.74
2018-09-08T01:05:13.350Z,14.71
2018-09-08T01:06:13.276Z,14.74
2018-09-08T01:07:13.203Z,14.72
2018-09-08T01:08:13.129Z,14.59
2018-09-08T01:09:13.055Z,14.57
2018-09-08T01:10:12.982Z,14.54
2018-09-08T01:11:12.909Z,14.53
2018-09-08T01:12:12.837Z,14.47
2018-09-08T01:13:12.761Z,14.46
2018-09-08T01:14:12.688Z,14.49
2018-09-08T01:15:12.615Z,14.46
2018-09-08T01:16:12.541Z,14.46
2018-09-08T01:17:12.466Z,14.41
2018-09-08T01:18:12.393Z,14.39
2018-09-08T01:19:12.320Z,14.38
2018-09-08T01:20:12.246Z,14.36
2018-09-08T01:21:12.172Z,14.41
2018-09-08T01:22:12.099Z,14.34
2018-09-08T01:23:12.025Z,14.34
2018-09-08T01:24:11.952Z,14.39
2018-09-08T01:25:11.877Z,14.41
2018-09-08T01:26:11.804Z,14.42
2018-09-08T01:27:11.731Z,14.38
2018-09-08T01:28:11.656Z,14.38
2018-09-08T01:29:11.583Z,14.38
2018-09-08T01:30:11.510Z,14.34
2018-09-08T01:31:11.440Z,14.34
2018-09-08T01:32:11.362Z,14.28
2018-09-08T01:33:11.288Z,14.28
2018-09-08T01:34:11.213Z,14.31
2018-09-08T01:35:11.141Z,14.39
2018-09-08T01:36:11.068Z,14.34
2018-09-08T01:37:10.993Z,14.28
2018-09-08T01:38:10.918Z,14.31
2018-09-08T01:39:10.849Z,14.17
2018-09-08T01:40:10.771Z,14.20
2018-09-08T01:41:10.698Z,14.24
2018-09-08T01:42:10.624Z,14.13
2018-09-08T01:43:10.551Z,14.11
2018-09-08T01:44:10.476Z,14.13
2018-09-08T01:45:10.402Z,14.09
2018-09-08T01:46:10.328Z,14.03
2018-09-08T01:47:10.254Z,13.99
2018-09-08T01:48:10.181Z,13.94
2018-09-08T01:49:10.106Z,14.01
2018-09-08T01:50:10.033Z,13.98
2018-09-08T01:51:09.959Z,13.92
2018-09-08T01:52:09.884Z,13.91
2018-09-08T01:53:09.810Z,13.81
2018-09-08T01:54:09.737Z,13.86
2018-09-08T01:55:09.665Z,13.74
2018-09-08T01:56:09.595Z,13.70
2018-09-08T01:57:09.514Z,13.70
2018-09-08T01:58:09.441Z,13.65
2018-09-08T01:59:09.368Z,13.71
2018-09-08T02:00:09.296Z,13.62
2018-09-08T02:01:09.216Z,13.55
2018-09-08T02:02:09.144Z,13.56
2018-09-08T02:03:09.072Z,13.47
2018-09-08T02:04:08.995Z,13.56
2018-09-08T02:05:08.921Z,13.53
2018-09-08T02:06:08.847Z,13.40
2018-09-08T02:07:08.775Z,13.37
2018-09-08T02:08:08.698Z,13.38
2018-09-08T02:09:08.624Z,13.22
2018-09-08T02:10:08.551Z,13.24
2018-09-08T02:11:08.477Z,13.14
2018-09-08T02:12:08.402Z,13.22
2018-09-08T02:13:08.327Z,13.14
2018-09-08T02:14:08.254Z,13.15
2018-09-08T02:15:08.179Z,13.10
2018-09-08T02:16:08.103Z,13.09
2018-09-08T02:17:08.029Z,13.07
2018-09-08T02:18:07.957Z,13.09
2018-09-08T02:19:07.881Z,13.06
2018-09-08T02:20:07.805Z,12.97
2018-09-08T02:21:07.731Z,12.89
2018-09-08T02:22:07.656Z,12.89
2018-09-08T02:23:07.582Z,12.79
2018-09-08T02:24:07.509Z,12.78
2018-09-08T02:25:07.432Z,12.71
2018-09-08T02:26:07.363Z,12.71
2018-09-08T02:27:07.285Z,12.61
2018-09-08T02:28:07.216Z,12.70
2018-09-08T02:29:07.168Z,12.74
2018-09-08T02:30:07.060Z,12.77
2018-09-08T02:31:06.986Z,12.71
2018-09-08T02:32:06.912Z,12.74
2018-09-08T02:33:06.835Z,12.70
2018-09-08T02:34:06.760Z,12.70
2018-09-08T02:35:06.686Z,12.69
2018-09-08T02:36:06.611Z,12.66
2018-09-08T02:37:06.536Z,12.63
2018-09-08T02:38:06.464Z,12.55
2018-09-08T02:39:06.386Z,12.52
2018-09-08T02:40:06.310Z,12.53
2018-09-08T02:41:06.236Z,12.53
2018-09-08T02:42:06.166Z,12.44
2018-09-08T02:43:06.087Z,12.39
2018-09-08T02:44:06.011Z,12.34
2018-09-08T02:45:05.936Z,12.34
2018-09-08T02:46:05.862Z,12.36
2018-09-08T02:47:05.787Z,12.30
2018-09-08T02:48:05.725Z,12.33
2018-09-08T02:49:05.640Z,12.21
2018-09-08T02:50:05.561Z,12.21
2018-09-08T02:51:05.486Z,12.24
2018-09-08T02:52:05.411Z,12.16
2018-09-08T02:53:05.335Z,12.21
2018-09-08T02:54:05.263Z,12.12
2018-09-08T02:55:05.187Z,12.09
2018-09-08T02:56:05.110Z,11.97
2018-09-08T02:57:05.036Z,11.98
2018-09-08T02:58:04.961Z,11.98
2018-09-08T02:59:04.884Z,11.90
2018-09-08T03:00:04.809Z,11.95
2018-09-08T03:01:04.735Z,11.89
2018-09-08T03:02:04.658Z,11.76
2018-09-08T03:03:04.584Z,11.75
2018-09-08T03:04:04.506Z,11.68
2018-09-08T03:05:04.433Z,11.69
2018-09-08T03:06:04.357Z,11.72
2018-09-08T03:07:04.283Z,11.71
2018-09-08T03:08:04.206Z,11.69
2018-09-08T03:09:04.132Z,11.65
2018-09-08T03:10:04.056Z,11.67
2018-09-08T03:11:03.981Z,11.64
2018-09-08T03:12:03.905Z,11.64
2018-09-08T03:13:03.829Z,11.57
2018-09-08T03:14:03.754Z,11.60
2018-09-08T03:15:03.679Z,11.54
2018-09-08T03:16:03.604Z,11.53
2018-09-08T03:17:03.523Z,11.51
2018-09-08T03:18:03.446Z,11.39
2018-09-08T03:19:03.370Z,11.42
2018-09-08T03:20:03.291Z,11.42
2018-09-08T03:21:03.215Z,11.36
2018-09-08T03:22:03.138Z,11.32
2018-09-08T03:23:03.062Z,11.35
2018-09-08T03:24:02.984Z,11.35
2018-09-08T03:25:02.906Z,11.31
2018-09-08T03:26:02.831Z,11.29
2018-09-08T03:27:02.753Z,11.29
2018-09-08T03:28:02.674Z,11.31
2018-09-08T03:29:02.597Z,11.34
2018-09-08T03:30:02.519Z,11.26
2018-09-08T03:31:02.441Z,11.24
2018-09-08T03:32:02.380Z,11.29
2018-09-08T03:33:02.287Z,11.24
2018-09-08T03:34:02.208Z,11.31
2018-09-08T03:35:02.138Z,11.20
2018-09-08T03:36:02.053Z,11.14
2018-09-08T03:37:01.978Z,11.10
2018-09-08T03:38:01.897Z,10.98
2018-09-08T03:39:01.819Z,11.02
2018-09-08T03:40:01.744Z,11.05
2018-09-08T03:41:01.661Z,11.00
2018-09-08T03:42:01.587Z,11.00
2018-09-08T03:43:01.507Z,11.02
2018-09-08T03:44:01.429Z,10.96
2018-09-08T03:45:01.351Z,10.98
2018-09-08T03:46:01.273Z,10.96
2018-09-08T03:47:01.195Z,10.96
2018-09-08T03:48:01.115Z,10.84
2018-09-08T03:49:01.038Z,10.83
2018-09-08T03:50:00.967Z,10.80
2018-09-08T03:51:00.881Z,10.78
2018-09-08T03:52:00.806Z,10.74
2018-09-08T03:53:00.730Z,10.69
2018-09-08T03:54:00.647Z,10.65
2018-09-08T03:55:00.568Z,10.67
2018-09-08T03:56:00.489Z,10.51
2018-09-08T03:57:00.411Z,10.51
2018-09-08T03:58:00.333Z,10.56
2018-09-08T03:59:00.275Z,10.56
2018-09-08T04:00:00.176Z,10.41
2018-09-08T04:01:00.098Z,10.46
2018-09-08T04:02:00.018Z,10.43
2018-09-08T04:02:59.942Z,10.34
2018-09-08T04:03:59.860Z,10.37
2018-09-08T04:04:59.783Z,10.40
2018-09-08T04:05:59.706Z,10.39
2018-09-08T04:06:59.625Z,10.33
2018-09-08T04:07:59.546Z,10.33
2018-09-08T04:08:59.468Z,10.29
2018-09-08T04:09:59.390Z,10.39
2018-09-08T04:10:59.311Z,10.36
2018-09-08T04:11:59.231Z,10.36
2018-09-08T04:12:59.153Z,10.23
2018-09-08T04:13:59.075Z,10.31
2018-09-08T04:14:58.996Z,10.26
2018-09-08T04:15:58.919Z,10.16
2018-09-08T04:16:58.837Z,10.19
2018-09-08T04:17:58.784Z,10.25
2018-09-08T04:18:58.679Z,10.16
2018-09-08T04:19:58.750Z,10.10
2018-09-08T04:20:58.529Z,10.22
2018-09-08T04:21:58.443Z,10.15
2018-09-08T04:22:58.365Z,10.18
2018-09-08T04:23:58.306Z,10.10
2018-09-08T04:24:58.205Z,10.11
2018-09-08T04:25:58.127Z,10.13
2018-09-08T04:26:58.049Z,10.07
2018-09-08T04:27:57.969Z,10.10
2018-09-08T04:28:57.890Z,9.98
2018-09-08T04:29:57.811Z,10.11
2018-09-08T04:30:57.732Z,10.10
2018-09-08T04:31:57.653Z,10.11
2018-09-08T04:32:57.575Z,10.04
2018-09-08T04:33:57.495Z,10.08
2018-09-08T04:34:57.417Z,10.00
2018-09-08T04:35:57.336Z,9.90
2018-09-08T04:36:57.259Z,9.90
2018-09-08T04:37:57.179Z,9.90
2018-09-08T04:38:57.100Z,9.90
2018-09-08T04:39:57.019Z,9.88
2018-09-08T04:40:56.963Z,9.82
2018-09-08T04:41:56.861Z,9.80
2018-09-08T04:42:56.784Z,9.86
2018-09-08T04:43:56.702Z,9.83
2018-09-08T04:44:56.623Z,9.70
2018-09-08T04:45:56.548Z,9.68
2018-09-08T04:46:56.465Z,9.78
2018-09-08T04:47:56.384Z,9.72
2018-09-08T04:48:56.306Z,9.71
2018-09-08T04:49:56.226Z,9.67
2018-09-08T04:50:56.153Z,9.74
2018-09-08T04:51:56.067Z,9.71
2018-09-08T04:52:55.990Z,9.67
2018-09-08T04:53:55.909Z,9.64
2018-09-08T04:54:55.829Z,9.67
2018-09-08T04:55:55.750Z,9.61
2018-09-08T04:56:55.671Z,9.60
2018-09-08T04:57:55.595Z,9.56
2018-09-08T04:58:55.519Z,9.64
2018-09-08T04:59:55.438Z,9.61
2018-09-08T05:00:55.354Z,9.60
2018-09-08T05:01:55.275Z,9.60
2018-09-08T05:02:55.196Z,9.55
2018-09-08T05:03:55.118Z,9.60
2018-09-08T05:04:55.035Z,9.58
2018-09-08T05:05:54.956Z,9.60
2018-09-08T05:06:54.877Z,9.53
2018-09-08T05:07:54.798Z,9.58
2018-09-08T05:08:54.725Z,9.56
2018-09-08T05:09:54.638Z,9.65
2018-09-08T05:10:54.559Z,9.56
2018-09-08T05:11:54.479Z,9.63
2018-09-08T05:12:54.399Z,9.63
2018-09-08T05:13:54.325Z,9.72
2018-09-08T05:14:54.242Z,9.71
2018-09-08T05:15:54.160Z,9.71
2018-09-08T05:16:54.085Z,9.65
2018-09-08T05:17:54.002Z,9.74
2018-09-08T05:18:53.924Z,9.56
2018-09-08T05:19:53.843Z,9.64
2018-09-08T05:20:53.767Z,9.58
2018-09-08T05:21:53.684Z,9.70
2018-09-08T05:22:53.606Z,9.74
2018-09-08T05:23:53.525Z,9.71
2018-09-08T05:24:53.445Z,9.68
2018-09-08T05:25:53.365Z,9.85
2018-09-08T05:26:53.286Z,9.82
2018-09-08T05:27:53.206Z,9.75
2018-09-08T05:28:53.126Z,9.68
2018-09-08T05:29:53.049Z,9.80
2018-09-08T05:30:52.968Z,9.65
2018-09-08T05:31:52.890Z,9.72
2018-09-08T05:32:52.812Z,9.64
2018-09-08T05:33:52.729Z,9.67
2018-09-08T05:34:52.681Z,9.70
2018-09-08T05:35:52.570Z,9.58
2018-09-08T05:36:52.491Z,9.58
2018-09-08T05:37:52.413Z,9.55
2018-09-08T05:38:52.331Z,9.56
2018-09-08T05:39:52.253Z,9.56
2018-09-08T05:40:52.173Z,9.56
2018-09-08T05:41:52.093Z,9.56
2018-09-08T05:42:52.023Z,9.60
2018-09-08T05:43:51.933Z,9.60
2018-09-08T05:44:51.852Z,9.68
2018-09-08T05:45:51.776Z,9.70
2018-09-08T05:46:51.696Z,9.75
2018-09-08T05:47:51.614Z,9.68
2018-09-08T05:48:51.559Z,9.78
2018-09-08T05:49:51.457Z,9.83
2018-09-08T05:50:51.376Z,9.79
2018-09-08T05:51:51.296Z,9.83
2018-09-08T05:52:51.217Z,9.85
2018-09-08T05:53:51.137Z,9.82
2018-09-08T05:54:51.059Z,9.82
2018-09-08T05:55:50.980Z,9.82
2018-09-08T05:56:50.900Z,9.85
2018-09-08T05:57:50.820Z,9.88
2018-09-08T05:58:50.744Z,9.90
2018-09-08T05:59:50.661Z,9.96
2018-09-08T06:00:50.581Z,9.96
2018-09-08T06:01:50.502Z,10.06
2018-09-08T06:02:50.426Z,10.06
2018-09-08T06:03:50.345Z,10.11
2018-09-08T06:04:50.265Z,10.00
2018-09-08T06:05:50.185Z,10.13
2018-09-08T06:06:50.106Z,10.15
2018-09-08T06:07:50.026Z,10.13
2018-09-08T06:08:49.946Z,10.16
2018-09-08T06:09:49.868Z,10.26
2018-09-08T06:10:49.789Z,10.26
2018-09-08T06:11:49.709Z,10.34
2018-09-08T06:12:49.631Z,10.26
2018-09-08T06:13:49.552Z,10.25
2018-09-08T06:14:49.472Z,10.34
2018-09-08T06:15:49.392Z,10.44
2018-09-08T06:16:49.314Z,10.41
2018-09-08T06:17:49.238Z,10.51
2018-09-08T06:18:49.156Z,10.55
2018-09-08T06:19:49.077Z,10.55
2018-09-08T06:20:48.998Z,10.69
2018-09-08T06:21:48.923Z,10.65
2018-09-08T06:22:48.842Z,10.77
2018-09-08T06:23:48.761Z,10.78
2018-09-08T06:24:48.682Z,10.78
2018-09-08T06:25:48.604Z,10.88
2018-09-08T06:26:48.526Z,10.99
2018-09-08T06:27:48.448Z,10.96
2018-09-08T06:28:48.394Z,10.98
2018-09-08T06:29:48.289Z,10.99
2018-09-08T06:30:48.215Z,11.06
2018-09-08T06:31:48.183Z,11.06
2018-09-08T06:32:48.053Z,11.21
2018-09-08T06:33:48.027Z,11.17
2018-09-08T06:34:47.899Z,11.32
2018-09-08T06:35:47.843Z,11.46
2018-09-08T06:36:47.740Z,11.47
2018-09-08T06:37:47.661Z,11.59
2018-09-08T06:38:47.585Z,11.71
2018-09-08T06:39:47.510Z,11.72
2018-09-08T06:40:47.428Z,11.83
2018-09-08T06:41:47.350Z,11.75
2018-09-08T06:42:47.273Z,11.87
2018-09-08T06:43:47.197Z,11.93
2018-09-08T06:44:47.208Z,11.86
2018-09-08T06:45:47.039Z,11.94
2018-09-08T06:46:46.960Z,11.95
2018-09-08T06:47:46.882Z,12.06
2018-09-08T06:48:46.804Z,12.09
2018-09-08T06:49:46.729Z,12.19
2018-09-08T06:50:46.649Z,12.23
2018-09-08T06:51:46.571Z,12.31
2018-09-08T06:52:46.494Z,12.31
2018-09-08T06:53:46.421Z,12.33
2018-09-08T06:54:46.338Z,12.31
2018-09-08T06:55:46.262Z,12.36
2018-09-08T06:56:46.184Z,12.44
2018-09-08T06:57:46.156Z,12.49
2018-09-08T06:58:46.030Z,12.56
2018-09-08T06:59:45.951Z,12.66
2018-09-08T07:00:45.875Z,12.74
2018-09-08T07:01:45.798Z,12.71
2018-09-08T07:02:45.719Z,12.85
2018-09-08T07:03:45.643Z,12.89
2018-09-08T07:04:45.566Z,12.99
2018-09-08T07:05:45.487Z,13.07
2018-09-08T07:06:45.411Z,13.09
2018-09-08T07:07:45.333Z,13.21
2018-09-08T07:08:45.257Z,13.21
2018-09-08T07:09:45.179Z,13.32
2018-09-08T07:10:45.102Z,13.28
2018-09-08T07:11:45.026Z,13.41
2018-09-08T07:12:44.948Z,13.62
2018-09-08T07:13:44.871Z,13.56
2018-09-08T07:14:44.798Z,13.59
2018-09-08T07:15:44.718Z,13.74
2018-09-08T07:16:44.641Z,13.86
2018-09-08T07:17:44.564Z,13.83
2018-09-08T07:18:44.489Z,13.96
2018-09-08T07:19:44.410Z,13.98
2018-09-08T07:20:44.334Z,13.98
2018-09-08T07:21:44.258Z,14.05
2018-09-08T07:22:44.184Z,14.09
2018-09-08T07:23:44.108Z,14.29
2018-09-08T07:24:44.060Z,14.34
2018-09-08T07:25:43.954Z,14.35
2018-09-08T07:26:43.880Z,14.39
2018-09-08T07:27:43.799Z,14.44
2018-09-08T07:28:43.724Z,14.47
2018-09-08T07:29:43.647Z,14.59
2018-09-08T07:30:43.571Z,14.69
2018-09-08T07:31:43.495Z,14.83
2018-09-08T07:32:43.428Z,14.93
2018-09-08T07:33:43.344Z,14.97
2018-09-08T07:34:43.267Z,15.06
2018-09-08T07:35:43.192Z,15.09
2018-09-08T07:36:43.114Z,15.31
2018-09-08T07:37:43.039Z,15.42
2018-09-08T07:38:42.963Z,15.35
2018-09-08T07:39:42.887Z,15.28
2018-09-08T07:40:42.813Z,15.42
2018-09-08T07:41:42.737Z,15.60
2018-09-08T07:42:42.661Z,15.67
2018-09-08T07:43:42.586Z,15.68
2018-09-08T07:44:42.508Z,15.66
2018-09-08T07:45:42.436Z,15.68
2018-09-08T07:46:42.358Z,15.76
2018-09-08T07:47:42.283Z,15.73
2018-09-08T07:48:42.207Z,15.67
2018-09-08T07:49:42.133Z,15.75
2018-09-08T07:50:42.057Z,15.64
2018-09-08T07:51:41.981Z,15.76
2018-09-08T07:52:41.909Z,15.66
2018-09-08T07:53:41.847Z,15.76
2018-09-08T07:54:41.754Z,15.82
2018-09-08T07:55:41.680Z,15.85
2018-09-08T07:56:41.603Z,16.03
2018-09-08T07:57:41.531Z,15.97
2018-09-08T07:58:41.454Z,16.01
2018-09-08T07:59:41.380Z,16.14
2018-09-08T08:00:41.303Z,16.20
2018-09-08T08:01:41.231Z,16.27
2018-09-08T08:02:41.153Z,16.34
2018-09-08T08:03:41.127Z,16.30
2018-09-08T08:04:41.003Z,16.38
2018-09-08T08:05:40.928Z,16.30
2018-09-08T08:06:40.875Z,16.53
2018-09-08T08:07:40.777Z,16.44
2018-09-08T08:08:40.703Z,16.48
2018-09-08T08:09:40.628Z,16.50
2018-09-08T08:10:40.553Z,16.50
2018-09-08T08:11:40.477Z,16.65
2018-09-08T08:12:40.404Z,16.71
2018-09-08T08:13:40.328Z,16.84
2018-09-08T08:14:40.360Z,16.82
2018-09-08T08:15:40.178Z,17.03
2018-09-08T08:16:40.107Z,17.14
2018-09-08T08:17:40.030Z,17.23
2018-09-08T08:18:39.956Z,17.03
2018-09-08T08:19:39.879Z,16.93
2018-09-08T08:20:39.806Z,17.13
2018-09-08T08:21:39.732Z,16.95
2018-09-08T08:22:39.656Z,16.82
2018-09-08T08:23:39.582Z,16.92
2018-09-08T08:24:39.507Z,16.93
2018-09-08T08:25:39.432Z,17.03
2018-09-08T08:26:39.358Z,17.05
2018-09-08T08:27:39.283Z,17.17
2018-09-08T08:28:39.210Z,17.11
2018-09-08T08:29:39.135Z,16.90
2018-09-08T08:30:39.061Z,16.92
2018-09-08T08:31:38.989Z,16.95
2018-09-08T08:32:38.911Z,16.99
2018-09-08T08:33:38.837Z,17.08
2018-09-08T08:34:38.762Z,17.10
2018-09-08T08:35:38.688Z,17.00
2018-09-08T08:36:38.613Z,16.95
2018-09-08T08:37:38.541Z,17.10
2018-09-08T08:38:38.467Z,17.23
2018-09-08T08:39:38.391Z,17.25
2018-09-08T08:40:38.317Z,17.35
2018-09-08T08:41:38.242Z,17.18
2018-09-08T08:42:38.168Z,17.17
2018-09-08T08:43:38.093Z,17.21
2018-09-08T08:44:38.019Z,17.07
2018-09-08T08:45:37.947Z,17.23
2018-09-08T08:46:37.870Z,17.20
2018-09-08T08:47:37.796Z,17.11
2018-09-08T08:48:37.722Z,17.23
2018-09-08T08:49:37.674Z,17.20
2018-09-08T08:50:37.573Z,17.26
2018-09-08T08:51:37.502Z,17.29
2018-09-08T08:52:37.425Z,17.40
2018-09-08T08:53:37.349Z,17.35
2018-09-08T08:54:37.277Z,17.29
2018-09-08T08:55:37.231Z,17.58
2018-09-08T08:56:37.127Z,17.74
2018-09-08T08:57:37.052Z,17.71
2018-09-08T08:58:36.978Z,17.38
2018-09-08T08:59:36.903Z,17.36
2018-09-08T09:00:36.829Z,17.67
2018-09-08T09:01:36.762Z,17.76
2018-09-08T09:02:36.681Z,17.85
2018-09-08T09:03:36.607Z,17.87
2018-09-08T09:04:36.533Z,17.84
2018-09-08T09:05:36.459Z,17.77
2018-09-08T09:06:36.385Z,17.82
2018-09-08T09:07:36.396Z,17.79
2018-09-08T09:08:36.661Z,17.73
2018-09-08T09:09:36.162Z,17.84
2018-09-08T09:10:36.087Z,17.76
2018-09-08T09:11:36.378Z,17.87
2018-09-08T09:12:36.276Z,17.91
2018-09-08T09:13:36.006Z,17.85
2018-09-08T09:14:36.139Z,17.74
2018-09-08T09:15:36.237Z,17.73
2018-09-08T09:16:35.643Z,17.79
2018-09-08T09:17:35.571Z,17.77
2018-09-08T09:18:35.909Z,17.81
2018-09-08T09:19:35.420Z,17.81
2018-09-08T09:20:35.347Z,17.77
2018-09-08T09:21:35.273Z,17.55
2018-09-08T09:22:35.199Z,17.64
2018-09-08T09:23:35.125Z,17.54
2018-09-08T09:24:35.339Z,17.51
2018-09-08T09:25:34.979Z,17.58
2018-09-08T09:26:34.903Z,17.67
2018-09-08T09:27:34.828Z,17.63
2018-09-08T09:28:34.754Z,17.60
2018-09-08T09:29:34.684Z,17.57
2018-09-08T09:30:34.608Z,17.73
2018-09-08T09:31:34.532Z,17.66
2018-09-08T09:32:34.459Z,17.39
2018-09-08T09:33:34.385Z,17.30
2018-09-08T09:34:34.311Z,17.32
2018-09-08T09:35:34.236Z,17.29
2018-09-08T09:36:34.162Z,17.51
2018-09-08T09:37:34.089Z,17.57
2018-09-08T09:38:34.016Z,17.69
2018-09-08T09:39:33.941Z,17.82
2018-09-08T09:40:33.867Z,17.98
2018-09-08T09:41:33.792Z,18.00
2018-09-08T09:42:33.718Z,18.02
2018-09-08T09:43:33.645Z,18.00
2018-09-08T09:44:33.570Z,18.04
2018-09-08T09:45:33.497Z,18.04
2018-09-08T09:46:33.423Z,17.98
2018-09-08T09:47:33.350Z,17.92
2018-09-08T09:48:33.278Z,17.82
2018-09-08T09:49:33.203Z,17.95
2018-09-08T09:50:33.130Z,17.95
2018-09-08T09:51:33.055Z,18.00
2018-09-08T09:52:32.983Z,18.14
2018-09-08T09:53:32.909Z,18.18
2018-09-08T09:54:32.839Z,18.21
2018-09-08T09:55:32.760Z,18.35
2018-09-08T09:56:32.688Z,18.27
2018-09-08T09:57:32.615Z,18.16
2018-09-08T09:58:32.539Z,17.92
2018-09-08T09:59:32.465Z,17.82
2018-09-08T10:00:32.392Z,17.81
2018-09-08T10:01:32.319Z,17.91
2018-09-08T10:02:32.247Z,17.92
2018-09-08T10:03:32.171Z,18.06
2018-09-08T10:04:32.099Z,18.32
2018-09-08T10:05:32.025Z,18.40
2018-09-08T10:06:31.981Z,18.19
2018-09-08T10:07:31.877Z,18.18
2018-09-08T10:08:31.803Z,18.04
2018-09-08T10:09:31.730Z,18.14
2018-09-08T10:10:31.658Z,18.07
2018-09-08T10:11:31.583Z,18.10
2018-09-08T10:12:31.509Z,18.18
2018-09-08T10:13:31.436Z,18.32
2018-09-08T10:14:31.366Z,18.46
2018-09-08T10:15:31.289Z,18.65
2018-09-08T10:16:31.215Z,18.52
2018-09-08T10:17:31.142Z,18.50
2018-09-08T10:18:31.068Z,18.49
2018-09-08T10:19:30.995Z,18.58
2018-09-08T10:20:30.921Z,18.52
2018-09-08T10:21:30.847Z,18.57
2018-09-08T10:22:30.776Z,18.59
2018-09-08T10:23:30.789Z,18.49
2018-09-08T10:24:30.627Z,18.37
2018-09-08T10:25:30.555Z,18.35
2018-09-08T10:26:30.577Z,18.27
2018-09-08T10:27:30.407Z,18.46
2018-09-08T10:28:30.346Z,18.52
2018-09-08T10:29:30.508Z,18.49
2018-09-08T10:30:30.256Z,18.49
2018-09-08T10:31:30.114Z,18.71
2018-09-08T10:32:30.041Z,18.83
2018-09-08T10:33:29.966Z,18.80
2018-09-08T10:34:29.893Z,18.95
2018-09-08T10:35:29.822Z,18.95
2018-09-08T10:36:29.746Z,18.99
2018-09-08T10:37:29.673Z,19.08
2018-09-08T10:38:29.600Z,19.14
2018-09-08T10:39:29.527Z,19.13
2018-09-08T10:40:29.455Z,19.24
2018-09-08T10:41:29.381Z,19.25
2018-09-08T10:42:29.309Z,19.28
2018-09-08T10:43:29.233Z,19.15
2018-09-08T10:44:29.161Z,19.08
2018-09-08T10:45:29.090Z,19.02
2018-09-08T10:46:29.014Z,18.94
2018-09-08T10:47:28.944Z,19.11
2018-09-08T10:48:28.870Z,19.27
2018-09-08T10:49:28.796Z,19.39
2018-09-08T10:50:28.724Z,19.25
2018-09-08T10:51:28.651Z,19.31
2018-09-08T10:52:28.577Z,19.50
2018-09-08T10:53:28.506Z,19.51
2018-09-08T10:54:28.432Z,19.69
2018-09-08T10:55:28.359Z,19.80
2018-09-08T10:56:28.286Z,19.73
2018-09-08T10:57:28.213Z,19.76
2018-09-08T10:58:28.143Z,19.68
2018-09-08T10:59:28.068Z,19.75
2018-09-08T11:00:27.997Z,19.94
2018-09-08T11:01:28.028Z,19.91
2018-09-08T11:02:28.041Z,19.95
2018-09-08T11:03:27.779Z,19.76
2018-09-08T11:04:27.707Z,19.90
2018-09-08T11:05:27.637Z,19.75
2018-09-08T11:06:27.563Z,19.68
2018-09-08T11:07:27.490Z,19.91
2018-09-08T11:08:27.418Z,20.03
2018-09-08T11:09:27.346Z,20.27
2018-09-08T11:10:27.275Z,20.12
2018-09-08T11:11:27.201Z,20.27
2018-09-08T11:12:27.129Z,20.31
2018-09-08T11:13:27.059Z,20.27
2018-09-08T11:14:26.988Z,20.26
2018-09-08T11:15:26.968Z,20.01
2018-09-08T11:16:26.842Z,19.91
2018-09-08T11:17:26.772Z,20.06
2018-09-08T11:18:26.698Z,19.90
2018-09-08T11:19:26.627Z,19.78
2018-09-08T11:20:26.554Z,20.00
2018-09-08T11:21:26.481Z,20.13
2018-09-08T11:22:26.410Z,20.28
2018-09-08T11:23:26.350Z,20.59
2018-09-08T11:24:26.266Z,20.40
2018-09-08T11:25:26.194Z,20.34
2018-09-08T11:26:26.124Z,20.65
2018-09-08T11:27:26.049Z,20.99
2018-09-08T11:28:25.978Z,21.19
2018-09-08T11:29:25.908Z,21.31
2018-09-08T11:30:25.877Z,21.46
2018-09-08T11:31:25.767Z,21.33
2018-09-08T11:32:25.695Z,21.17
2018-09-08T11:33:25.623Z,21.02
2018-09-08T11:34:25.550Z,20.91
2018-09-08T11:35:25.479Z,20.91
2018-09-08T11:36:25.408Z,20.84
2018-09-08T11:37:25.337Z,21.05
2018-09-08T11:38:25.393Z,21.21
2018-09-08T11:39:25.204Z,21.49
2018-09-08T11:40:25.129Z,21.75
2018-09-08T11:41:25.054Z,22.02
2018-09-08T11:42:24.985Z,22.39
2018-09-08T11:43:24.915Z,22.10
2018-09-08T11:44:24.847Z,21.92
2018-09-08T11:45:24.774Z,22.12
2018-09-08T11:46:24.710Z,22.68
2018-09-08T11:47:24.638Z,23.20
2018-09-08T11:48:24.567Z,23.98
2018-09-08T11:49:24.560Z,23.83
2018-09-08T11:50:24.430Z,23.64
2018-09-08T11:51:24.360Z,24.17
2018-09-08T11:52:24.291Z,24.88
2018-09-08T11:53:24.225Z,25.13
2018-09-08T11:54:24.157Z,25.35
2018-09-08T11:55:24.090Z,25.99
2018-09-08T11:56:24.022Z,26.62
2018-09-08T11:57:23.956Z,27.24
2018-09-08T11:58:23.891Z,26.83
2018-09-08T11:59:23.839Z,26.45
2018-09-08T12:00:23.760Z,26.45
2018-09-08T12:01:23.694Z,25.97
2018-09-08T12:02:23.633Z,26.28
2018-09-08T12:03:23.565Z,26.82
2018-09-08T12:04:23.501Z,27.36
2018-09-08T12:05:23.436Z,27.19
2018-09-08T12:06:23.389Z,27.08
2018-09-08T12:07:23.308Z,27.01
2018-09-08T12:08:23.247Z,26.43
2018-09-08T12:09:23.182Z,26.11
2018-09-08T12:10:23.123Z,26.18
2018-09-08T12:11:23.056Z,26.34
2018-09-08T12:12:22.994Z,26.60
2018-09-08T12:13:22.931Z,26.92
2018-09-08T12:14:22.868Z,27.38
2018-09-08T12:15:22.807Z,26.45
2018-09-08T12:16:22.743Z,26.75
2018-09-08T12:17:22.682Z,27.39
2018-09-08T12:18:22.620Z,27.32
2018-09-08T12:19:22.557Z,25.99
2018-09-08T12:20:22.496Z,25.94
2018-09-08T12:21:22.437Z,26.50
2018-09-08T12:22:22.434Z,27.09
2018-09-08T12:23:22.312Z,26.84
2018-09-08T12:24:22.251Z,26.95
2018-09-08T12:25:22.190Z,26.87
2018-09-08T12:26:22.129Z,27.13
2018-09-08T12:27:22.067Z,27.08
2018-09-08T12:28:22.006Z,27.89
2018-09-08T12:29:21.946Z,27.98
2018-09-08T12:30:21.940Z,27.76
2018-09-08T12:31:21.824Z,27.65
2018-09-08T12:32:21.774Z,27.35
2018-09-08T12:33:21.706Z,27.35
2018-09-08T12:34:21.644Z,26.94
2018-09-08T12:35:21.580Z,27.14
2018-09-08T12:36:21.524Z,27.57
2018-09-08T12:37:21.461Z,27.82
2018-09-08T12:38:21.402Z,28.06
2018-09-08T12:39:21.339Z,27.36
2018-09-08T12:40:21.278Z,26.62
2018-09-08T12:41:21.219Z,26.98
2018-09-08T12:42:21.160Z,27.36
2018-09-08T12:43:21.099Z,28.09
2018-09-08T12:44:21.039Z,28.34
2018-09-08T12:45:20.983Z,28.44
2018-09-08T12:46:20.919Z,27.45
2018-09-08T12:47:20.857Z,26.71
2018-09-08T12:48:20.798Z,27.29
2018-09-08T12:49:20.737Z,27.02
2018-09-08T12:50:20.677Z,26.49
2018-09-08T12:51:20.617Z,26.84
2018-09-08T12:52:20.560Z,27.29
2018-09-08T12:53:20.549Z,27.36
2018-09-08T12:54:20.437Z,27.04